• Join FlightAware (Why Join?)
  • Login
  • US Flag 
01:17AM EDT


 

Airport Tracker/Info


-or-


 

Live Flight TrackerFlight Track Log ✈ KFA280 ✈ 01-May-2013 ✈ CYHM - CYQM

Flight Track Log - Related Links

Times and Time Zones

All times are in EDT time to prevent confusion due to time zone crossing. See the KFA280 flight status page for this flight to view local times or setup timezone preferences in your user account.

Time Position Orientation Groundspeed Altitude Reporting Facility
EDT Latitude Longitude Course Direction KTS MPH feet Rate Location/Type
01:28AM 43.1667 -79.9000 270° West 20 23 700  Level Toronto Center
01:29AM 43.1667 -79.9333 270° West 30 35 700  Level Toronto Center
01:30AM 43.1667 -79.9333 270° West 10 12 700 240 Level Toronto Center
01:31AM 43.1667 -79.9000 90° East 160 184 1,200 1,080 Climbing Toronto Center
01:32AM 43.1500 -79.8333 109° East 170 196 2,900 1,320 Climbing Toronto Center
01:33AM 43.1333 -79.7667 109° East 180 207 3,900 720 Climbing Toronto Center
01:34AM 43.1500 -79.6833 75° East 210 242 4,400 900 Climbing Toronto Center
01:35AM 43.1833 -79.5833 65° Northeast 260 299 5,800 1,740 Climbing Toronto Center
01:36AM 43.2000 -79.5000 75° East 270 311 7,900 2,100 Climbing Toronto Center
01:37AM 43.2333 -79.3833 69° East 290 334 10,000 1,260 Climbing Toronto Center
01:38AM 43.2500 -79.2667 79° East 320 368 10,500 900 Climbing Toronto Center
01:39AM 43.2833 -79.1333 71° East 370 426 11,800 1,500 Climbing Toronto Center
01:40AM 43.3167 -78.9833 73° East 380 437 13,600 1,560 Climbing Toronto Center
01:41AM 43.3500 -78.8500 71° East 380 437 15,000 1,320 Climbing Toronto Center
01:42AM 43.3833 -78.7167 71° East 410 472 16,300 1,200 Climbing Toronto Center
01:43AM 43.4167 -78.5500 75° East 420 483 17,500 1,200 Climbing Toronto Center
01:44AM 43.4333 -78.4000 81° East 430 495 18,800 960 Climbing Toronto Center
01:45AM 43.4833 -78.2333 67° East 440 506 19,500 960 Climbing Toronto Center
01:46AM 43.5167 -78.0667 75° East 450 518 20,800 1,200 Climbing Toronto Center
01:47AM 43.5667 -77.9000 67° East 460 529 21,900 900 Climbing Toronto Center
01:48AM 43.6000 -77.7167 76° East 460 529 22,700 540 Climbing Toronto Center
01:49AM 43.6333 -77.5667 73° East 470 541 23,000 600 Climbing Toronto Center
01:50AM 43.6667 -77.3667 77° East 470 541 23,900 840 Climbing Toronto Center
01:51AM 43.7167 -77.2167 65° Northeast 470 541 24,700 840 Climbing Toronto Center
01:52AM 43.7667 -77.0667 65° Northeast 470 541 25,600 720 Climbing Toronto Center
01:53AM 43.8167 -76.8833 69° East 470 541 26,200 660 Climbing Toronto Center
01:54AM 43.8667 -76.7167 67° East 480 552 27,000 900 Climbing Toronto Center
01:55AM 43.9000 -76.5333 76° East 470 541 28,000 840 Climbing Toronto Center
01:56AM 43.9489 -76.4664 45° Northeast 467 537 28,500 660 Climbing Boston Center
01:57AM 43.9925 -76.2931 71° East 467 537 29,200 840 Climbing Boston Center
01:58AM 44.0336 -76.1225 71° East 462 532 30,200 780 Climbing Boston Center
01:59AM 44.0783 -75.9575 69° East 456 525 30,800 300 Climbing Boston Center
02:00AM 44.1269 -75.7925 68° East 456 525 30,900 60 Climbing Boston Center
02:01AM 44.1736 -75.6244 69° East 461 531 31,000  Climbing Boston Center
02:02AM 44.2197 -75.4558 69° East 461 531 31,000  Level Boston Center
02:03AM 44.2719 -75.2817 67° East 455 524 31,000  Level Boston Center
02:04AM 44.3239 -75.1186 66° East 450 518 31,000  Level Boston Center
02:05AM 44.3692 -74.9550 69° East 450 518 31,000  Level Boston Center
02:07AM 44.4675 -74.6306 67° East 450 518 31,000  Level Boston Center
02:08AM 44.5183 -74.4781 65° Northeast 450 518 31,000  Level Boston Center
02:09AM 44.5542 -74.3250 72° East 444 511 31,000  Level Boston Center
02:10AM 44.5803 -74.1306 79° East 456 525 31,000  Level Boston Center
02:11AM 44.6033 -73.9561 79° East 456 525 31,000  Level Boston Center
02:12AM 44.6389 -73.7850 74° East 461 531 31,000  Level Boston Center
02:13AM 44.6739 -73.6311 72° East 456 525 31,000  Level Boston Center
02:13AM 44.7000 -73.5000 74° East 460 529 31,000  Level Montreal Center
02:14AM 44.7111 -73.4594 69° East 451 519 31,000  Level Boston Center
02:14AM 44.7333 -73.3000 79° East 450 518 31,000  Level Montreal Center
02:15AM 44.7667 -73.1333 74° East 450 518 31,000  Level Montreal Center
02:16AM 44.8167 -72.9667 67° East 450 518 31,000  Level Montreal Center
02:17AM 44.8500 -72.8000 74° East 450 518 31,000  Level Montreal Center
02:18AM 44.8672 -72.7681 53° Northeast 455 524 31,000  Level Boston Center
02:18AM 44.8833 -72.6333 80° East 450 518 31,000  Level Montreal Center
02:19AM 44.9333 -72.4667 67° East 440 506 31,000  Level Montreal Center
02:21AM 44.9736 -72.2669 74° East 445 512 31,000  Level Boston Center
02:22AM 45.0025 -72.0967 76° East 440 506 31,000  Level Boston Center
02:23AM 45.0308 -71.9233 77° East 440 506 31,000  Level Boston Center
02:24AM 45.0614 -71.7525 76° East 440 506 31,000  Level Boston Center
02:25AM 45.0936 -71.5758 75° East 445 512 31,000  Level Boston Center
02:26AM 45.1211 -71.4047 77° East 445 512 31,000  Level Boston Center
02:26AM 45.1333 -71.2667 83° East 450 518 31,000  Level Montreal Center
02:27AM 45.1667 -71.0667 77° East 450 518 31,000  Level Montreal Center
02:28AM 45.1833 -70.9333 80° East 450 518 31,000  Level Montreal Center
02:29AM 45.2167 -70.7667 74° East 450 518 31,000  Level Montreal Center
02:30AM 45.2381 -70.7128 61° Northeast 443 510 31,000  Level Boston Center
02:31AM 45.2664 -70.5411 77° East 448 516 31,000  Level Boston Center
02:32AM 45.2947 -70.3631 77° East 448 516 31,000  Level Boston Center
02:33AM 45.3228 -70.1878 77° East 448 516 31,000  Level Boston Center
02:34AM 45.3547 -70.0153 75° East 448 516 31,000  Level Boston Center
02:35AM 45.3861 -69.8367 76° East 453 521 31,000  Level Boston Center
02:36AM 45.4133 -69.6581 78° East 453 521 31,000  Level Boston Center
02:37AM 45.4364 -69.4969 78° East 458 527 31,000  Level Boston Center
02:38AM 45.4628 -69.3122 78° East 458 527 31,000  Level Boston Center
02:39AM 45.4908 -69.1242 78° East 470 541 31,000  Level Boston Center
02:40AM 45.5189 -68.9417 78° East 470 541 31,000  Level Boston Center
02:41AM 45.5486 -68.7592 77° East 470 541 31,000  Level Boston Center
02:42AM 45.5781 -68.5733 77° East 470 541 31,000  Level Boston Center
02:43AM 45.6050 -68.3875 78° East 470 541 31,000  Level Boston Center
02:44AM 45.6317 -68.2014 78° East 470 541 31,000  Level Boston Center
02:45AM 45.6617 -67.9942 78° East 475 547 31,000  Level Boston Center
02:46AM 45.6897 -67.8078 78° East 475 547 31,000  Level Boston Center
02:47AM 45.7133 -67.6214 80° East 475 547 31,000  Level Boston Center
02:47AM 45.7167 -67.4833 88° East 470 541 31,000  Level Moncton Center
02:48AM 45.7500 -67.3000 75° East 470 541 31,000  Level Moncton Center
02:49AM 45.7833 -67.1000 76° East 470 541 31,000  Level Moncton Center
02:50AM 45.8167 -66.9500 72° East 470 541 31,000  Level Moncton Center
02:51AM 45.8333 -66.7333 84° East 470 541 31,000 -60 Level Moncton Center
02:52AM 45.8500 -66.5667 82° East 470 541 30,900 -1,260 Descending Moncton Center
02:53AM 45.8833 -66.4000 74° East 470 541 28,500 -2,940 Descending Moncton Center
02:54AM 45.9167 -66.2000 76° East 460 529 25,100 -3,180 Descending Moncton Center
02:55AM 45.9500 -66.0333 74° East 450 518 22,200 -2,880 Descending Moncton Center
02:56AM 45.9833 -65.8500 75° East 430 495 19,400 -2,520 Descending Moncton Center
02:57AM 46.0000 -65.7000 81° East 410 472 17,200 -2,400 Descending Moncton Center
02:58AM 46.0167 -65.5500 81° East 390 449 14,700 -2,340 Descending Moncton Center
02:59AM 46.0333 -65.4167 80° East 360 414 12,600 -2,040 Descending Moncton Center
03:00AM 46.0500 -65.2833 80° East 340 391 10,700 -1,500 Descending Moncton Center
03:01AM 46.0833 -65.1667 68° East 310 357 9,700 -1,500 Descending Moncton Center
03:02AM 46.1000 -65.0500 78° East 280 322 7,800 -1,800 Descending Moncton Center
03:03AM 46.1333 -64.9333 68° East 280 322 6,200 -1,500 Descending Moncton Center
03:04AM 46.1500 -64.8333 76° East 270 311 4,800 -1,500 Descending Moncton Center
03:05AM 46.1500 -64.7333 90° East 260 299 3,200 -1,500 Descending Moncton Center
03:06AM 46.1667 -64.6333 76° East 250 288 1,800 -720 Descending Moncton Center
03:07AM 46.1833 -64.5667 70° East 210 242 1,800  Level Moncton Center
03:08AM 46.1833 -64.5000 90° East 180 207 1,800  Level Moncton Center
03:09AM 46.1667 -64.4167 106° East 170 196 1,900  Climbing Moncton Center
03:10AM 46.1333 -64.4500 215° Southwest 150 173 1,800 -120 Descending Moncton Center